sensor_id;sensor_type;location;lat;lon;timestamp;temperature;humidity
6954;DHT22;3516;47.980;8.808;2023-12-28T00:00:49;-1.50;99.90
6954;DHT22;3516;47.980;8.808;2023-12-28T00:03:15;-1.50;99.90
6954;DHT22;3516;47.980;8.808;2023-12-28T00:05:42;-1.60;99.90
6954;DHT22;3516;47.980;8.808;2023-12-28T00:08:08;-1.60;99.90
6954;DHT22;3516;47.980;8.808;2023-12-28T00:10:35;-1.60;99.90
6954;DHT22;3516;47.980;8.808;2023-12-28T00:13:02;-1.60;99.90
6954;DHT22;3516;47.980;8.808;2023-12-28T00:15:30;-1.60;99.90
6954;DHT22;3516;47.980;8.808;2023-12-28T00:17:56;-1.60;99.90
6954;DHT22;3516;47.980;8.808;2023-12-28T00:20:23;-1.70;99.90
6954;DHT22;3516;47.980;8.808;2023-12-28T00:22:49;-1.70;99.90
6954;DHT22;3516;47.980;8.808;2023-12-28T00:25:16;-1.70;99.90
6954;DHT22;3516;47.980;8.808;2023-12-28T00:27:43;-1.70;99.90
6954;DHT22;3516;47.980;8.808;2023-12-28T00:30:11;-1.70;99.90
6954;DHT22;3516;47.980;8.808;2023-12-28T00:32:40;-1.70;99.90
6954;DHT22;3516;47.980;8.808;2023-12-28T00:35:08;-1.70;99.90
6954;DHT22;3516;47.980;8.808;2023-12-28T00:37:35;-1.70;99.90
6954;DHT22;3516;47.980;8.808;2023-12-28T00:40:02;-1.70;99.90
6954;DHT22;3516;47.980;8.808;2023-12-28T00:42:28;-1.70;99.90
6954;DHT22;3516;47.980;8.808;2023-12-28T00:44:55;-1.70;99.90
6954;DHT22;3516;47.980;8.808;2023-12-28T00:47:21;-1.70;99.90
6954;DHT22;3516;47.980;8.808;2023-12-28T00:49:49;-1.70;99.90
6954;DHT22;3516;47.980;8.808;2023-12-28T00:52:16;-1.70;99.90
6954;DHT22;3516;47.980;8.808;2023-12-28T00:54:42;-1.70;99.90
6954;DHT22;3516;47.980;8.808;2023-12-28T00:57:09;-1.70;99.90
6954;DHT22;3516;47.980;8.808;2023-12-28T00:59:35;-1.80;99.90
6954;DHT22;3516;47.980;8.808;2023-12-28T01:02:02;-1.80;99.90
6954;DHT22;3516;47.980;8.808;2023-12-28T01:04:29;-1.80;99.90
6954;DHT22;3516;47.980;8.808;2023-12-28T01:06:56;-1.80;99.90
6954;DHT22;3516;47.980;8.808;2023-12-28T01:09:23;-1.80;99.90
6954;DHT22;3516;47.980;8.808;2023-12-28T01:11:50;-1.70;99.90
6954;DHT22;3516;47.980;8.808;2023-12-28T01:14:16;-1.70;99.90
6954;DHT22;3516;47.980;8.808;2023-12-28T01:16:43;-1.70;99.90
6954;DHT22;3516;47.980;8.808;2023-12-28T01:19:10;-1.70;99.90
6954;DHT22;3516;47.980;8.808;2023-12-28T01:21:37;-1.70;99.90
6954;DHT22;3516;47.980;8.808;2023-12-28T01:24:05;-1.70;99.90
6954;DHT22;3516;47.980;8.808;2023-12-28T01:26:31;-1.70;99.90
6954;DHT22;3516;47.980;8.808;2023-12-28T01:28:59;-1.80;99.90
6954;DHT22;3516;47.980;8.808;2023-12-28T01:31:28;-1.80;99.90
6954;DHT22;3516;47.980;8.808;2023-12-28T01:33:54;-1.80;99.90
6954;DHT22;3516;47.980;8.808;2023-12-28T01:36:21;-1.70;99.90
6954;DHT22;3516;47.980;8.808;2023-12-28T01:38:48;-1.70;99.90
6954;DHT22;3516;47.980;8.808;2023-12-28T01:41:16;-1.70;99.90
6954;DHT22;3516;47.980;8.808;2023-12-28T01:43:43;-1.70;99.90
6954;DHT22;3516;47.980;8.808;2023-12-28T01:46:10;-1.70;99.90
6954;DHT22;3516;47.980;8.808;2023-12-28T01:48:39;-1.70;99.90
6954;DHT22;3516;47.980;8.808;2023-12-28T01:51:06;-1.70;99.90
6954;DHT22;3516;47.980;8.808;2023-12-28T01:53:32;-1.70;99.90
6954;DHT22;3516;47.980;8.808;2023-12-28T01:55:59;-1.70;99.90
6954;DHT22;3516;47.980;8.808;2023-12-28T02:00:55;-1.70;99.90
6954;DHT22;3516;47.980;8.808;2023-12-28T02:03:22;-1.70;99.90
6954;DHT22;3516;47.980;8.808;2023-12-28T02:05:48;-1.80;99.90
6954;DHT22;3516;47.980;8.808;2023-12-28T02:08:15;-1.80;99.90
6954;DHT22;3516;47.980;8.808;2023-12-28T02:10:41;-1.80;99.90
6954;DHT22;3516;47.980;8.808;2023-12-28T02:13:08;-1.80;99.90
6954;DHT22;3516;47.980;8.808;2023-12-28T02:15:35;-1.80;99.90
6954;DHT22;3516;47.980;8.808;2023-12-28T02:18:05;-1.80;99.90
6954;DHT22;3516;47.980;8.808;2023-12-28T02:20:33;-1.80;99.90
6954;DHT22;3516;47.980;8.808;2023-12-28T02:23:01;-1.90;99.90
6954;DHT22;3516;47.980;8.808;2023-12-28T02:25:28;-1.90;99.90
6954;DHT22;3516;47.980;8.808;2023-12-28T02:27:55;-1.90;99.90
6954;DHT22;3516;47.980;8.808;2023-12-28T02:30:22;-1.90;99.90
6954;DHT22;3516;47.980;8.808;2023-12-28T02:32:52;-1.90;99.90
6954;DHT22;3516;47.980;8.808;2023-12-28T02:35:22;-1.90;99.90
6954;DHT22;3516;47.980;8.808;2023-12-28T02:37:51;-1.90;99.90
6954;DHT22;3516;47.980;8.808;2023-12-28T02:40:18;-1.90;99.90
6954;DHT22;3516;47.980;8.808;2023-12-28T02:42:46;-1.80;99.90
6954;DHT22;3516;47.980;8.808;2023-12-28T02:45:13;-1.80;99.90
6954;DHT22;3516;47.980;8.808;2023-12-28T02:47:40;-1.90;99.90
6954;DHT22;3516;47.980;8.808;2023-12-28T02:50:07;-1.90;99.90
6954;DHT22;3516;47.980;8.808;2023-12-28T02:52:33;-1.90;99.90
6954;DHT22;3516;47.980;8.808;2023-12-28T02:55:00;-1.90;99.90
6954;DHT22;3516;47.980;8.808;2023-12-28T02:57:26;-1.90;99.90
6954;DHT22;3516;47.980;8.808;2023-12-28T02:59:54;-1.90;99.90
6954;DHT22;3516;47.980;8.808;2023-12-28T03:02:22;-2.00;99.90
6954;DHT22;3516;47.980;8.808;2023-12-28T03:04:48;-2.00;99.90
6954;DHT22;3516;47.980;8.808;2023-12-28T03:07:15;-2.00;99.90
6954;DHT22;3516;47.980;8.808;2023-12-28T03:09:41;-1.90;99.90
6954;DHT22;3516;47.980;8.808;2023-12-28T03:12:08;-1.90;99.90
6954;DHT22;3516;47.980;8.808;2023-12-28T03:14:35;-1.90;99.90
6954;DHT22;3516;47.980;8.808;2023-12-28T03:17:03;-1.90;99.90
6954;DHT22;3516;47.980;8.808;2023-12-28T03:19:29;-1.90;99.90
6954;DHT22;3516;47.980;8.808;2023-12-28T03:21:56;-1.90;99.90
6954;DHT22;3516;47.980;8.808;2023-12-28T03:24:22;-1.80;99.90
6954;DHT22;3516;47.980;8.808;2023-12-28T03:26:49;-1.80;99.90
6954;DHT22;3516;47.980;8.808;2023-12-28T03:29:16;-1.90;99.90
6954;DHT22;3516;47.980;8.808;2023-12-28T03:31:42;-1.90;99.90
6954;DHT22;3516;47.980;8.808;2023-12-28T03:34:10;-1.90;99.90
6954;DHT22;3516;47.980;8.808;2023-12-28T03:36:37;-2.10;99.90
6954;DHT22;3516;47.980;8.808;2023-12-28T03:39:03;-2.00;99.90
6954;DHT22;3516;47.980;8.808;2023-12-28T03:41:30;-2.10;99.90
6954;DHT22;3516;47.980;8.808;2023-12-28T03:43:57;-2.00;99.90
6954;DHT22;3516;47.980;8.808;2023-12-28T03:46:23;-2.10;99.90
6954;DHT22;3516;47.980;8.808;2023-12-28T03:48:50;-2.10;99.90
6954;DHT22;3516;47.980;8.808;2023-12-28T03:51:18;-2.10;99.90
6954;DHT22;3516;47.980;8.808;2023-12-28T03:53:45;-2.10;99.90
6954;DHT22;3516;47.980;8.808;2023-12-28T03:56:18;-2.10;99.90
6954;DHT22;3516;47.980;8.808;2023-12-28T03:58:44;-2.20;99.90
6954;DHT22;3516;47.980;8.808;2023-12-28T04:01:11;-2.10;99.90
6954;DHT22;3516;47.980;8.808;2023-12-28T04:03:37;-2.10;99.90
6954;DHT22;3516;47.980;8.808;2023-12-28T04:06:05;-2.10;99.90
6954;DHT22;3516;47.980;8.808;2023-12-28T04:08:33;-2.10;99.90
6954;DHT22;3516;47.980;8.808;2023-12-28T04:10:59;-2.00;99.90
6954;DHT22;3516;47.980;8.808;2023-12-28T04:13:26;-2.00;99.90
6954;DHT22;3516;47.980;8.808;2023-12-28T04:15:52;-2.00;99.90
6954;DHT22;3516;47.980;8.808;2023-12-28T04:18:19;-2.00;99.90
6954;DHT22;3516;47.980;8.808;2023-12-28T04:20:45;-2.00;99.90
6954;DHT22;3516;47.980;8.808;2023-12-28T04:23:12;-2.00;99.90
6954;DHT22;3516;47.980;8.808;2023-12-28T04:25:40;-2.00;99.90
6954;DHT22;3516;47.980;8.808;2023-12-28T04:28:06;-2.00;99.90
6954;DHT22;3516;47.980;8.808;2023-12-28T04:30:33;-2.00;99.90
6954;DHT22;3516;47.980;8.808;2023-12-28T04:33:00;-2.00;99.90
6954;DHT22;3516;47.980;8.808;2023-12-28T04:35:26;-2.00;99.90
6954;DHT22;3516;47.980;8.808;2023-12-28T04:37:53;-2.00;99.90
6954;DHT22;3516;47.980;8.808;2023-12-28T04:40:19;-2.00;99.90
6954;DHT22;3516;47.980;8.808;2023-12-28T04:42:47;-2.00;99.90
6954;DHT22;3516;47.980;8.808;2023-12-28T04:45:14;-2.10;99.90
6954;DHT22;3516;47.980;8.808;2023-12-28T04:47:41;-2.10;99.90
6954;DHT22;3516;47.980;8.808;2023-12-28T04:50:07;-2.10;99.90
6954;DHT22;3516;47.980;8.808;2023-12-28T04:52:34;-2.10;99.90
6954;DHT22;3516;47.980;8.808;2023-12-28T04:55:00;-2.10;99.90
6954;DHT22;3516;47.980;8.808;2023-12-28T04:57:27;-2.20;99.90
6954;DHT22;3516;47.980;8.808;2023-12-28T04:59:55;-2.10;99.90
6954;DHT22;3516;47.980;8.808;2023-12-28T05:02:22;-2.10;99.90
6954;DHT22;3516;47.980;8.808;2023-12-28T05:04:48;-2.10;99.90
6954;DHT22;3516;47.980;8.808;2023-12-28T05:07:15;-2.00;99.90
6954;DHT22;3516;47.980;8.808;2023-12-28T05:09:41;-2.00;99.90
6954;DHT22;3516;47.980;8.808;2023-12-28T05:12:08;-2.00;99.90
6954;DHT22;3516;47.980;8.808;2023-12-28T05:14:34;-2.00;99.90
6954;DHT22;3516;47.980;8.808;2023-12-28T05:17:02;-2.00;99.90
6954;DHT22;3516;47.980;8.808;2023-12-28T05:19:29;-2.00;99.90
6954;DHT22;3516;47.980;8.808;2023-12-28T05:21:56;-1.40;99.90
6954;DHT22;3516;47.980;8.808;2023-12-28T05:24:22;-2.00;99.90
6954;DHT22;3516;47.980;8.808;2023-12-28T05:26:49;-2.00;99.90
6954;DHT22;3516;47.980;8.808;2023-12-28T05:29:15;-2.00;99.90
6954;DHT22;3516;47.980;8.808;2023-12-28T05:31:42;-2.00;99.90
6954;DHT22;3516;47.980;8.808;2023-12-28T05:34:10;-2.00;99.90
6954;DHT22;3516;47.980;8.808;2023-12-28T05:36:36;-1.90;99.90
6954;DHT22;3516;47.980;8.808;2023-12-28T05:39:03;-1.90;99.90
6954;DHT22;3516;47.980;8.808;2023-12-28T05:41:30;-1.90;99.90
6954;DHT22;3516;47.980;8.808;2023-12-28T05:43:56;-1.90;99.90
6954;DHT22;3516;47.980;8.808;2023-12-28T05:46:23;-1.90;99.90
6954;DHT22;3516;47.980;8.808;2023-12-28T05:48:50;-1.80;99.90
6954;DHT22;3516;47.980;8.808;2023-12-28T05:51:17;-1.80;99.90
6954;DHT22;3516;47.980;8.808;2023-12-28T05:53:44;-1.80;99.90
6954;DHT22;3516;47.980;8.808;2023-12-28T05:56:11;-1.80;99.90
6954;DHT22;3516;47.980;8.808;2023-12-28T05:58:38;-1.80;99.90
6954;DHT22;3516;47.980;8.808;2023-12-28T06:01:04;-1.80;99.90
6954;DHT22;3516;47.980;8.808;2023-12-28T06:03:31;-1.80;99.90
6954;DHT22;3516;47.980;8.808;2023-12-28T06:05:58;-1.80;99.90
6954;DHT22;3516;47.980;8.808;2023-12-28T06:08:25;-1.80;99.90
6954;DHT22;3516;47.980;8.808;2023-12-28T06:10:52;-1.80;99.90
6954;DHT22;3516;47.980;8.808;2023-12-28T06:13:18;-1.80;99.90
6954;DHT22;3516;47.980;8.808;2023-12-28T06:15:45;-1.80;99.90
6954;DHT22;3516;47.980;8.808;2023-12-28T06:18:12;-1.80;99.90
6954;DHT22;3516;47.980;8.808;2023-12-28T06:20:38;-1.80;99.90
6954;DHT22;3516;47.980;8.808;2023-12-28T06:23:06;-1.80;99.90
6954;DHT22;3516;47.980;8.808;2023-12-28T06:25:34;-1.80;99.90
6954;DHT22;3516;47.980;8.808;2023-12-28T06:28:00;-1.80;99.90
6954;DHT22;3516;47.980;8.808;2023-12-28T06:30:27;-1.90;99.90
6954;DHT22;3516;47.980;8.808;2023-12-28T06:32:54;-1.80;99.90
6954;DHT22;3516;47.980;8.808;2023-12-28T06:35:21;-1.80;99.90
6954;DHT22;3516;47.980;8.808;2023-12-28T06:37:47;-1.80;99.90
6954;DHT22;3516;47.980;8.808;2023-12-28T06:40:14;-1.80;99.90
6954;DHT22;3516;47.980;8.808;2023-12-28T06:42:41;-1.80;99.90
6954;DHT22;3516;47.980;8.808;2023-12-28T06:45:09;-1.80;99.90
6954;DHT22;3516;47.980;8.808;2023-12-28T06:47:35;-1.80;99.90
6954;DHT22;3516;47.980;8.808;2023-12-28T06:50:02;-1.80;99.90
6954;DHT22;3516;47.980;8.808;2023-12-28T06:52:29;-1.70;99.90
6954;DHT22;3516;47.980;8.808;2023-12-28T06:54:56;-1.80;99.90
6954;DHT22;3516;47.980;8.808;2023-12-28T06:57:23;-1.70;99.90
6954;DHT22;3516;47.980;8.808;2023-12-28T06:59:51;-1.70;99.90
6954;DHT22;3516;47.980;8.808;2023-12-28T07:02:17;-1.70;99.90
6954;DHT22;3516;47.980;8.808;2023-12-28T07:04:44;-1.70;99.90
6954;DHT22;3516;47.980;8.808;2023-12-28T07:07:10;-1.60;99.90
6954;DHT22;3516;47.980;8.808;2023-12-28T07:09:37;-1.60;99.90
6954;DHT22;3516;47.980;8.808;2023-12-28T07:12:04;-1.50;99.90
6954;DHT22;3516;47.980;8.808;2023-12-28T07:14:31;-1.40;99.90
6954;DHT22;3516;47.980;8.808;2023-12-28T07:16:59;-1.40;99.90
6954;DHT22;3516;47.980;8.808;2023-12-28T07:19:26;-1.30;99.90
6954;DHT22;3516;47.980;8.808;2023-12-28T07:21:52;-1.10;99.90
6954;DHT22;3516;47.980;8.808;2023-12-28T07:24:19;-1.00;99.90
6954;DHT22;3516;47.980;8.808;2023-12-28T07:26:45;-0.90;99.90
6954;DHT22;3516;47.980;8.808;2023-12-28T07:29:12;-0.90;99.90
6954;DHT22;3516;47.980;8.808;2023-12-28T07:31:38;-0.70;99.90
6954;DHT22;3516;47.980;8.808;2023-12-28T07:34:06;-0.70;99.90
6954;DHT22;3516;47.980;8.808;2023-12-28T07:36:33;-0.60;99.90
6954;DHT22;3516;47.980;8.808;2023-12-28T07:38:59;-0.60;99.90
6954;DHT22;3516;47.980;8.808;2023-12-28T07:41:26;-0.50;99.90
6954;DHT22;3516;47.980;8.808;2023-12-28T07:43:52;-0.40;99.90
6954;DHT22;3516;47.980;8.808;2023-12-28T07:46:19;-0.40;99.90
6954;DHT22;3516;47.980;8.808;2023-12-28T07:48:46;-0.40;99.90
6954;DHT22;3516;47.980;8.808;2023-12-28T07:51:14;-0.30;99.90
6954;DHT22;3516;47.980;8.808;2023-12-28T07:53:40;-0.30;99.90
6954;DHT22;3516;47.980;8.808;2023-12-28T07:56:07;-0.20;99.90
6954;DHT22;3516;47.980;8.808;2023-12-28T07:58:33;-0.20;99.90
6954;DHT22;3516;47.980;8.808;2023-12-28T08:01:02;-0.10;99.90
6954;DHT22;3516;47.980;8.808;2023-12-28T08:03:29;-0.10;99.90
6954;DHT22;3516;47.980;8.808;2023-12-28T08:05:56;0.00;99.90
6954;DHT22;3516;47.980;8.808;2023-12-28T08:08:24;0.10;99.90
6954;DHT22;3516;47.980;8.808;2023-12-28T08:10:50;0.10;99.90
6954;DHT22;3516;47.980;8.808;2023-12-28T08:13:17;0.20;99.90
6954;DHT22;3516;47.980;8.808;2023-12-28T08:15:43;0.20;99.90
6954;DHT22;3516;47.980;8.808;2023-12-28T08:18:11;0.20;99.90
6954;DHT22;3516;47.980;8.808;2023-12-28T08:20:38;0.30;99.90
6954;DHT22;3516;47.980;8.808;2023-12-28T08:23:05;0.30;99.90
6954;DHT22;3516;47.980;8.808;2023-12-28T08:25:33;0.50;99.90
6954;DHT22;3516;47.980;8.808;2023-12-28T08:28:00;0.50;99.90
6954;DHT22;3516;47.980;8.808;2023-12-28T08:30:26;0.60;99.90
6954;DHT22;3516;47.980;8.808;2023-12-28T08:32:53;0.60;99.90
6954;DHT22;3516;47.980;8.808;2023-12-28T08:35:20;0.60;99.90
6954;DHT22;3516;47.980;8.808;2023-12-28T08:37:46;0.70;99.90
6954;DHT22;3516;47.980;8.808;2023-12-28T08:40:13;0.70;99.90
6954;DHT22;3516;47.980;8.808;2023-12-28T08:42:41;0.80;99.90
6954;DHT22;3516;47.980;8.808;2023-12-28T08:45:08;0.70;99.90
6954;DHT22;3516;47.980;8.808;2023-12-28T08:47:34;0.70;99.90
6954;DHT22;3516;47.980;8.808;2023-12-28T08:50:01;0.70;99.90
6954;DHT22;3516;47.980;8.808;2023-12-28T08:52:27;0.60;99.90
6954;DHT22;3516;47.980;8.808;2023-12-28T08:54:55;0.60;99.90
6954;DHT22;3516;47.980;8.808;2023-12-28T08:57:21;0.60;99.90
6954;DHT22;3516;47.980;8.808;2023-12-28T08:59:49;0.60;99.90
6954;DHT22;3516;47.980;8.808;2023-12-28T09:02:16;0.60;99.90
6954;DHT22;3516;47.980;8.808;2023-12-28T09:04:41;0.60;99.90
6954;DHT22;3516;47.980;8.808;2023-12-28T09:07:08;0.60;99.90
6954;DHT22;3516;47.980;8.808;2023-12-28T09:09:35;0.70;99.90
6954;DHT22;3516;47.980;8.808;2023-12-28T09:12:01;0.70;99.90
6954;DHT22;3516;47.980;8.808;2023-12-28T09:14:29;0.70;99.90
6954;DHT22;3516;47.980;8.808;2023-12-28T09:16:58;0.70;99.90
6954;DHT22;3516;47.980;8.808;2023-12-28T09:19:24;0.70;99.90
6954;DHT22;3516;47.980;8.808;2023-12-28T09:21:51;0.80;99.90
6954;DHT22;3516;47.980;8.808;2023-12-28T09:24:17;0.80;99.90
6954;DHT22;3516;47.980;8.808;2023-12-28T09:26:44;1.00;99.90
6954;DHT22;3516;47.980;8.808;2023-12-28T09:29:11;1.00;99.90
6954;DHT22;3516;47.980;8.808;2023-12-28T09:31:37;1.20;99.90
6954;DHT22;3516;47.980;8.808;2023-12-28T09:34:05;1.30;99.90
6954;DHT22;3516;47.980;8.808;2023-12-28T09:36:32;1.40;99.90
6954;DHT22;3516;47.980;8.808;2023-12-28T09:38:58;1.50;99.90
6954;DHT22;3516;47.980;8.808;2023-12-28T09:41:26;1.50;99.90
6954;DHT22;3516;47.980;8.808;2023-12-28T09:43:53;1.50;99.90
6954;DHT22;3516;47.980;8.808;2023-12-28T09:46:20;1.50;99.90
6954;DHT22;3516;47.980;8.808;2023-12-28T09:48:47;1.50;99.90
6954;DHT22;3516;47.980;8.808;2023-12-28T09:51:15;1.60;99.90
6954;DHT22;3516;47.980;8.808;2023-12-28T09:53:42;1.60;99.90
6954;DHT22;3516;47.980;8.808;2023-12-28T09:56:09;1.60;99.90
6954;DHT22;3516;47.980;8.808;2023-12-28T09:58:36;1.70;99.90
6954;DHT22;3516;47.980;8.808;2023-12-28T10:01:03;1.70;99.90
6954;DHT22;3516;47.980;8.808;2023-12-28T10:03:29;1.80;99.90
6954;DHT22;3516;47.980;8.808;2023-12-28T10:05:56;2.00;99.90
6954;DHT22;3516;47.980;8.808;2023-12-28T10:08:23;2.00;99.90
6954;DHT22;3516;47.980;8.808;2023-12-28T10:10:49;2.10;99.90
6954;DHT22;3516;47.980;8.808;2023-12-28T10:13:19;2.20;99.90
6954;DHT22;3516;47.980;8.808;2023-12-28T10:15:46;2.30;99.90
6954;DHT22;3516;47.980;8.808;2023-12-28T10:18:13;2.30;99.90
6954;DHT22;3516;47.980;8.808;2023-12-28T10:20:39;2.40;99.90
6954;DHT22;3516;47.980;8.808;2023-12-28T10:23:06;2.40;99.90
6954;DHT22;3516;47.980;8.808;2023-12-28T10:25:34;2.40;99.90
6954;DHT22;3516;47.980;8.808;2023-12-28T10:28:03;2.50;99.90
6954;DHT22;3516;47.980;8.808;2023-12-28T10:30:30;2.50;99.90
6954;DHT22;3516;47.980;8.808;2023-12-28T10:32:57;2.60;99.90
6954;DHT22;3516;47.980;8.808;2023-12-28T10:35:24;2.60;99.90
6954;DHT22;3516;47.980;8.808;2023-12-28T10:37:51;2.60;99.90
6954;DHT22;3516;47.980;8.808;2023-12-28T10:40:19;2.70;99.90
6954;DHT22;3516;47.980;8.808;2023-12-28T10:42:51;2.80;99.90
6954;DHT22;3516;47.980;8.808;2023-12-28T10:45:18;2.80;99.90
6954;DHT22;3516;47.980;8.808;2023-12-28T10:47:48;2.80;99.90
6954;DHT22;3516;47.980;8.808;2023-12-28T10:50:21;2.70;99.90
6954;DHT22;3516;47.980;8.808;2023-12-28T10:52:50;2.70;99.90
6954;DHT22;3516;47.980;8.808;2023-12-28T10:55:22;2.80;99.90
6954;DHT22;3516;47.980;8.808;2023-12-28T10:57:56;2.90;99.90
6954;DHT22;3516;47.980;8.808;2023-12-28T11:00:25;2.80;99.90
6954;DHT22;3516;47.980;8.808;2023-12-28T11:02:52;2.80;99.90
6954;DHT22;3516;47.980;8.808;2023-12-28T11:05:19;2.90;99.90
6954;DHT22;3516;47.980;8.808;2023-12-28T11:07:47;2.80;99.90
6954;DHT22;3516;47.980;8.808;2023-12-28T11:10:14;2.90;99.90
6954;DHT22;3516;47.980;8.808;2023-12-28T11:12:42;2.90;99.90
6954;DHT22;3516;47.980;8.808;2023-12-28T11:15:11;2.90;99.90
6954;DHT22;3516;47.980;8.808;2023-12-28T11:17:38;3.00;99.90
6954;DHT22;3516;47.980;8.808;2023-12-28T11:20:06;3.10;99.90
6954;DHT22;3516;47.980;8.808;2023-12-28T11:22:33;3.20;99.90
6954;DHT22;3516;47.980;8.808;2023-12-28T11:25:00;3.30;99.90
6954;DHT22;3516;47.980;8.808;2023-12-28T11:27:33;3.40;99.90
6954;DHT22;3516;47.980;8.808;2023-12-28T11:29:59;3.40;99.90
6954;DHT22;3516;47.980;8.808;2023-12-28T11:32:27;3.40;99.90
6954;DHT22;3516;47.980;8.808;2023-12-28T11:34:57;3.40;99.90
6954;DHT22;3516;47.980;8.808;2023-12-28T11:37:24;3.40;99.90
6954;DHT22;3516;47.980;8.808;2023-12-28T11:39:52;3.30;99.90
6954;DHT22;3516;47.980;8.808;2023-12-28T11:42:20;3.30;99.90
6954;DHT22;3516;47.980;8.808;2023-12-28T11:44:47;3.30;99.90
6954;DHT22;3516;47.980;8.808;2023-12-28T11:47:15;3.40;99.90
6954;DHT22;3516;47.980;8.808;2023-12-28T11:49:43;3.40;99.90
6954;DHT22;3516;47.980;8.808;2023-12-28T11:52:21;3.50;99.90
6954;DHT22;3516;47.980;8.808;2023-12-28T11:54:48;3.50;99.90
6954;DHT22;3516;47.980;8.808;2023-12-28T11:57:15;3.40;99.90
6954;DHT22;3516;47.980;8.808;2023-12-28T11:59:43;3.40;99.90
6954;DHT22;3516;47.980;8.808;2023-12-28T12:02:10;3.50;99.90
6954;DHT22;3516;47.980;8.808;2023-12-28T12:04:37;3.60;99.90
6954;DHT22;3516;47.980;8.808;2023-12-28T12:07:04;3.60;99.90
6954;DHT22;3516;47.980;8.808;2023-12-28T12:09:31;3.70;99.90
6954;DHT22;3516;47.980;8.808;2023-12-28T12:12:00;3.80;99.90
6954;DHT22;3516;47.980;8.808;2023-12-28T12:14:26;3.90;99.90
6954;DHT22;3516;47.980;8.808;2023-12-28T12:16:53;3.90;99.90
6954;DHT22;3516;47.980;8.808;2023-12-28T12:19:21;4.00;99.90
6954;DHT22;3516;47.980;8.808;2023-12-28T12:21:48;4.00;99.90
6954;DHT22;3516;47.980;8.808;2023-12-28T12:24:18;4.00;99.90
6954;DHT22;3516;47.980;8.808;2023-12-28T12:26:45;4.00;99.90
6954;DHT22;3516;47.980;8.808;2023-12-28T12:29:11;4.00;99.90
6954;DHT22;3516;47.980;8.808;2023-12-28T12:31:38;4.00;99.90
6954;DHT22;3516;47.980;8.808;2023-12-28T12:34:07;4.10;99.90
6954;DHT22;3516;47.980;8.808;2023-12-28T12:36:33;4.00;99.90
6954;DHT22;3516;47.980;8.808;2023-12-28T12:39:00;4.00;99.90
6954;DHT22;3516;47.980;8.808;2023-12-28T12:41:31;4.00;99.90
6954;DHT22;3516;47.980;8.808;2023-12-28T12:43:58;4.00;99.90
6954;DHT22;3516;47.980;8.808;2023-12-28T12:46:24;4.10;99.90
6954;DHT22;3516;47.980;8.808;2023-12-28T12:48:54;4.10;99.90
6954;DHT22;3516;47.980;8.808;2023-12-28T12:51:21;4.20;99.90
6954;DHT22;3516;47.980;8.808;2023-12-28T12:53:48;4.20;99.90
6954;DHT22;3516;47.980;8.808;2023-12-28T12:56:15;4.20;99.90
6954;DHT22;3516;47.980;8.808;2023-12-28T12:58:45;4.20;99.90
6954;DHT22;3516;47.980;8.808;2023-12-28T13:01:11;4.20;99.90
6954;DHT22;3516;47.980;8.808;2023-12-28T13:03:38;4.20;99.90
6954;DHT22;3516;47.980;8.808;2023-12-28T13:06:04;4.30;99.90
6954;DHT22;3516;47.980;8.808;2023-12-28T13:08:31;4.20;99.90
6954;DHT22;3516;47.980;8.808;2023-12-28T13:10:58;4.20;99.90
6954;DHT22;3516;47.980;8.808;2023-12-28T13:13:25;4.20;99.90
6954;DHT22;3516;47.980;8.808;2023-12-28T13:15:52;4.10;99.90
6954;DHT22;3516;47.980;8.808;2023-12-28T13:18:19;4.10;99.90
6954;DHT22;3516;47.980;8.808;2023-12-28T13:20:46;4.10;99.90
6954;DHT22;3516;47.980;8.808;2023-12-28T13:23:12;4.10;99.90
6954;DHT22;3516;47.980;8.808;2023-12-28T13:25:39;4.10;99.90
6954;DHT22;3516;47.980;8.808;2023-12-28T13:28:05;4.10;99.90
6954;DHT22;3516;47.980;8.808;2023-12-28T13:30:32;4.10;99.90
6954;DHT22;3516;47.980;8.808;2023-12-28T13:33:00;4.10;99.90
6954;DHT22;3516;47.980;8.808;2023-12-28T13:35:27;4.10;99.90
6954;DHT22;3516;47.980;8.808;2023-12-28T13:37:53;4.10;99.90
6954;DHT22;3516;47.980;8.808;2023-12-28T13:40:20;4.10;99.90
6954;DHT22;3516;47.980;8.808;2023-12-28T13:42:46;4.00;99.90
6954;DHT22;3516;47.980;8.808;2023-12-28T13:45:14;4.00;99.90
6954;DHT22;3516;47.980;8.808;2023-12-28T13:47:41;4.00;99.90
6954;DHT22;3516;47.980;8.808;2023-12-28T13:50:09;4.00;99.90
6954;DHT22;3516;47.980;8.808;2023-12-28T13:52:36;4.00;99.90
6954;DHT22;3516;47.980;8.808;2023-12-28T13:55:02;4.00;99.90
6954;DHT22;3516;47.980;8.808;2023-12-28T13:57:29;4.10;99.90
6954;DHT22;3516;47.980;8.808;2023-12-28T13:59:56;4.10;99.90
6954;DHT22;3516;47.980;8.808;2023-12-28T14:02:25;4.10;99.90
6954;DHT22;3516;47.980;8.808;2023-12-28T14:04:52;4.10;99.90
6954;DHT22;3516;47.980;8.808;2023-12-28T14:07:20;4.10;99.90
6954;DHT22;3516;47.980;8.808;2023-12-28T14:09:47;4.10;99.90
6954;DHT22;3516;47.980;8.808;2023-12-28T14:12:13;4.20;99.90
6954;DHT22;3516;47.980;8.808;2023-12-28T14:14:40;4.20;99.90
6954;DHT22;3516;47.980;8.808;2023-12-28T14:17:06;4.20;99.90
6954;DHT22;3516;47.980;8.808;2023-12-28T14:19:33;4.20;99.90
6954;DHT22;3516;47.980;8.808;2023-12-28T14:22:00;4.30;99.90
6954;DHT22;3516;47.980;8.808;2023-12-28T14:24:28;4.30;99.90
6954;DHT22;3516;47.980;8.808;2023-12-28T14:26:55;4.30;99.90
6954;DHT22;3516;47.980;8.808;2023-12-28T14:29:22;4.30;99.90
6954;DHT22;3516;47.980;8.808;2023-12-28T14:31:49;4.30;99.90
6954;DHT22;3516;47.980;8.808;2023-12-28T14:34:16;4.30;99.90
6954;DHT22;3516;47.980;8.808;2023-12-28T14:36:44;4.30;99.90
6954;DHT22;3516;47.980;8.808;2023-12-28T14:39:15;4.30;99.90
6954;DHT22;3516;47.980;8.808;2023-12-28T14:41:44;4.30;99.90
6954;DHT22;3516;47.980;8.808;2023-12-28T14:44:11;4.30;99.90
6954;DHT22;3516;47.980;8.808;2023-12-28T14:46:38;4.20;99.90
6954;DHT22;3516;47.980;8.808;2023-12-28T14:49:04;4.30;99.90
6954;DHT22;3516;47.980;8.808;2023-12-28T14:51:31;4.10;99.90
6954;DHT22;3516;47.980;8.808;2023-12-28T14:53:58;4.20;99.90
6954;DHT22;3516;47.980;8.808;2023-12-28T14:56:24;4.30;99.90
6954;DHT22;3516;47.980;8.808;2023-12-28T14:58:52;4.20;99.90
6954;DHT22;3516;47.980;8.808;2023-12-28T15:01:20;4.30;99.90
6954;DHT22;3516;47.980;8.808;2023-12-28T15:03:47;4.30;99.90
6954;DHT22;3516;47.980;8.808;2023-12-28T15:06:14;4.20;99.90
6954;DHT22;3516;47.980;8.808;2023-12-28T15:08:41;4.20;99.90
6954;DHT22;3516;47.980;8.808;2023-12-28T15:11:08;4.20;99.90
6954;DHT22;3516;47.980;8.808;2023-12-28T15:13:36;4.20;99.90
6954;DHT22;3516;47.980;8.808;2023-12-28T15:16:04;4.20;99.90
6954;DHT22;3516;47.980;8.808;2023-12-28T15:18:31;4.20;99.90
6954;DHT22;3516;47.980;8.808;2023-12-28T15:20:58;4.20;99.90
6954;DHT22;3516;47.980;8.808;2023-12-28T15:23:25;4.10;99.90
6954;DHT22;3516;47.980;8.808;2023-12-28T15:25:53;4.10;99.90
6954;DHT22;3516;47.980;8.808;2023-12-28T15:28:20;4.10;99.90
6954;DHT22;3516;47.980;8.808;2023-12-28T15:30:48;4.00;99.90
6954;DHT22;3516;47.980;8.808;2023-12-28T15:33:16;4.00;99.90
6954;DHT22;3516;47.980;8.808;2023-12-28T15:35:43;4.00;99.90
6954;DHT22;3516;47.980;8.808;2023-12-28T15:38:09;4.00;99.90
6954;DHT22;3516;47.980;8.808;2023-12-28T15:40:36;4.00;99.90
6954;DHT22;3516;47.980;8.808;2023-12-28T15:43:02;4.00;99.90
6954;DHT22;3516;47.980;8.808;2023-12-28T15:45:29;4.00;99.90
6954;DHT22;3516;47.980;8.808;2023-12-28T15:47:56;4.00;99.90
6954;DHT22;3516;47.980;8.808;2023-12-28T15:50:24;3.90;99.90
6954;DHT22;3516;47.980;8.808;2023-12-28T15:52:51;3.90;99.90
6954;DHT22;3516;47.980;8.808;2023-12-28T15:55:17;3.90;99.90
6954;DHT22;3516;47.980;8.808;2023-12-28T15:57:44;3.80;99.90
6954;DHT22;3516;47.980;8.808;2023-12-28T16:00:11;3.90;99.90
6954;DHT22;3516;47.980;8.808;2023-12-28T16:02:37;3.90;99.90
6954;DHT22;3516;47.980;8.808;2023-12-28T16:05:04;3.80;99.90
6954;DHT22;3516;47.980;8.808;2023-12-28T16:07:32;3.90;99.90
6954;DHT22;3516;47.980;8.808;2023-12-28T16:09:59;3.80;99.90